Temp: 18.4°C   Baro: 1022.7mb
  Wind: 6.9mph   Dir: NW (314°)
  Rain: 0.0mm (0.0mm/hr)
  Solar: 272W/m2  Hum: 55%
 
Bath Spa Weather Station Historical Data
Daily Summary for April 6, 2020 Units:  Metric    English   Both
Daily Weekly Monthly Yearly Custom
  High: Low: Average:
Temperature: 19.2 °C 11.5 °C 14.8 °C
Dew Point: 12.2 °C 8.5 °C 9.8 °C
Humidity: 82% 54% 72%
Wind Speed: 19km/h 2.7km/h 11.1km/h
Wind Gust: 32.2km/h - -
Wind- - WNW
Pressure: 1022.6 hPa 1015.5 hPa -
Precipitation: 0 mm    
Historical Graphs
 
 
Tabular Data for April 6, 2020
Time Temperature Dew Point Pressure Wind Wind Speed Wind Gust Humidity Rainfall Rate (Hourly) solar
00:04 13.4 °C 9.7 °C 1015.5 hPa WNW 12.2 km/h 19.3 km/h 78.2% 0 mm 0 W/m2
00:09 13.4 °C 9.8 °C 1015.5 hPa WNW 14.2 km/h 20.9 km/h 79% 0 mm 0 W/m2
00:14 13.4 °C 9.8 °C 1015.5 hPa WNW 10.6 km/h 20.9 km/h 79% 0 mm 0 W/m2
00:19 13.4 °C 9.8 °C 1015.5 hPa West 12.2 km/h 25.7 km/h 79% 0 mm 0 W/m2
00:24 13.4 °C 9.8 °C 1015.5 hPa WNW 16.6 km/h 25.7 km/h 79% 0 mm 0 W/m2
00:29 13.3 °C 9.8 °C 1015.5 hPa WNW 17.7 km/h 30.6 km/h 79% 0 mm 0 W/m2
00:34 13.3 °C 9.6 °C 1015.5 hPa WNW 12.7 km/h 30.6 km/h 78.2% 0 mm 0 W/m2
00:39 13.3 °C 9.4 °C 1015.5 hPa WNW 11.3 km/h 22.5 km/h 78% 0 mm 0 W/m2
00:44 13.2 °C 9.4 °C 1015.5 hPa WNW 13.8 km/h 30.6 km/h 78% 0 mm 0 W/m2
00:54 13.2 °C 9.3 °C 1015.5 hPa WNW 14.5 km/h 32.2 km/h 77% 0 mm 0 W/m2
00:59 13.2 °C 9.3 °C 1015.5 hPa West 17.1 km/h 25.7 km/h 77% 0 mm 0 W/m2
01:04 13.2 °C 9.3 °C 1015.5 hPa WNW 14.8 km/h 27.4 km/h 77% 0 mm 0 W/m2
01:09 13.2 °C 9.4 °C 1015.5 hPa WNW 10.5 km/h 24.1 km/h 78% 0 mm 0 W/m2
01:19 13.2 °C 9.4 °C 1015.5 hPa West 17.4 km/h 25.7 km/h 78% 0 mm 0 W/m2
01:24 13.2 °C 9.4 °C 1015.5 hPa WNW 11.6 km/h 27.4 km/h 78% 0 mm 0 W/m2
01:29 13.1 °C 9.4 °C 1015.5 hPa WNW 13.8 km/h 29 km/h 78% 0 mm 0 W/m2
01:34 13.1 °C 9.4 °C 1015.5 hPa WNW 16.7 km/h 27.4 km/h 78% 0 mm 0 W/m2
01:39 12.9 °C 9.3 °C 1015.5 hPa WNW 14.2 km/h 20.9 km/h 78.2% 0 mm 0 W/m2
01:43 12.9 °C 9.3 °C 1015.5 hPa WNW 15 km/h 24.1 km/h 79% 0 mm 0 W/m2
01:49 12.9 °C 9.3 °C 1015.5 hPa WNW 12.6 km/h 25.7 km/h 79% 0 mm 0 W/m2
01:54 12.9 °C 9.3 °C 1015.5 hPa West 11.4 km/h 25.7 km/h 79% 0 mm 0 W/m2
01:59 12.8 °C 9.2 °C 1015.8 hPa WNW 9 km/h 22.5 km/h 79% 0 mm 0 W/m2
02:04 12.8 °C 9.2 °C 1015.8 hPa WNW 12.6 km/h 22.5 km/h 79% 0 mm 0 W/m2
02:09 12.8 °C 9.2 °C 1015.8 hPa WNW 11.1 km/h 27.4 km/h 79% 0 mm 0 W/m2
02:14 12.8 °C 9.2 °C 1015.8 hPa WNW 11.3 km/h 27.4 km/h 78.6% 0 mm 0 W/m2
02:19 12.8 °C 9.1 °C 1015.8 hPa NW 12.6 km/h 24.1 km/h 78% 0 mm 0 W/m2
02:24 12.8 °C 9.1 °C 1015.8 hPa WNW 11.6 km/h 22.5 km/h 78.4% 0 mm 0 W/m2
02:29 12.7 °C 9.2 °C 1015.8 hPa WNW 9.7 km/h 16.1 km/h 79% 0 mm 0 W/m2
02:34 12.6 °C 9.1 °C 1015.8 hPa WNW 10.3 km/h 25.7 km/h 79% 0 mm 0 W/m2
02:39 12.6 °C 9.1 °C 1015.8 hPa WNW 10 km/h 19.3 km/h 79% 0 mm 0 W/m2
02:44 12.6 °C 9.2 °C 1015.8 hPa WNW 11.1 km/h 19.3 km/h 79.8% 0 mm 0 W/m2
02:49 12.7 °C 9.3 °C 1016.1 hPa WNW 11.6 km/h 24.1 km/h 80% 0 mm 0 W/m2
02:54 12.7 °C 9.3 °C 1016.1 hPa NW 10.6 km/h 24.1 km/h 80% 0 mm 0 W/m2
02:59 12.8 °C 9.3 °C 1016.1 hPa WNW 16.1 km/h 27.4 km/h 79.6% 0 mm 0 W/m2
03:04 12.8 °C 9.2 °C 1016.1 hPa WNW 10.9 km/h 22.5 km/h 79% 0 mm 0 W/m2
03:09 12.8 °C 9.2 °C 1016.1 hPa WNW 13.2 km/h 22.5 km/h 79% 0 mm 0 W/m2
03:14 12.8 °C 9.2 °C 1016.1 hPa WNW 12.6 km/h 24.1 km/h 79% 0 mm 0 W/m2
03:19 12.7 °C 9.2 °C 1016.1 hPa WNW 10 km/h 19.3 km/h 79% 0 mm 0 W/m2
03:24 12.7 °C 9.2 °C 1016.1 hPa WNW 9.8 km/h 20.9 km/h 79% 0 mm 0 W/m2
03:29 12.7 °C 9.2 °C 1016.1 hPa NW 7.2 km/h 17.7 km/h 79% 0 mm 0 W/m2
03:34 12.7 °C 9.2 °C 1016.1 hPa NW 10.9 km/h 20.9 km/h 79% 0 mm 0 W/m2
03:39 12.7 °C 9.2 °C 1016.1 hPa WNW 8.7 km/h 24.1 km/h 79% 0 mm 0 W/m2
03:44 12.7 °C 9.2 °C 1016.1 hPa WNW 12.9 km/h 20.9 km/h 79% 0 mm 0 W/m2
03:49 12.7 °C 9.2 °C 1016.1 hPa WNW 10 km/h 17.7 km/h 79% 0 mm 0 W/m2
03:54 12.7 °C 9.2 °C 1016.1 hPa WNW 13.5 km/h 20.9 km/h 79% 0 mm 0 W/m2
03:59 12.6 °C 9.1 °C 1016.1 hPa WNW 8.9 km/h 19.3 km/h 79% 0 mm 0 W/m2
04:04 12.6 °C 9.1 °C 1016.1 hPa West 8.4 km/h 19.3 km/h 79% 0 mm 0 W/m2
04:09 12.6 °C 9.1 °C 1016.1 hPa WNW 8 km/h 22.5 km/h 79% 0 mm 0 W/m2
04:14 12.4 °C 8.9 °C 1016.1 hPa WNW 10.6 km/h 20.9 km/h 79% 0 mm 0 W/m2
04:19 12.4 °C 8.9 °C 1016.5 hPa WNW 13.8 km/h 24.1 km/h 79.8% 0 mm 0 W/m2
04:23 12.3 °C 8.9 °C 1016.5 hPa West 11.6 km/h 24.1 km/h 80% 0 mm 0 W/m2
04:29 12.2 °C 8.9 °C 1016.1 hPa West 10.9 km/h 17.7 km/h 80% 0 mm 0 W/m2
04:34 12.2 °C 8.8 °C 1016.1 hPa WNW 9.2 km/h 17.7 km/h 80% 0 mm 0 W/m2
04:39 12.1 °C 8.8 °C 1016.5 hPa WNW 6.8 km/h 17.7 km/h 80.4% 0 mm 0 W/m2
04:44 12 °C 8.8 °C 1016.5 hPa WNW 7.2 km/h 16.1 km/h 81% 0 mm 0 W/m2
04:49 11.9 °C 8.7 °C 1016.5 hPa WNW 9.7 km/h 14.5 km/h 81% 0 mm 0 W/m2
04:54 11.9 °C 8.7 °C 1016.5 hPa WNW 9.7 km/h 19.3 km/h 81% 0 mm 0 W/m2
04:59 11.8 °C 8.6 °C 1016.5 hPa WNW 8.2 km/h 16.1 km/h 81% 0 mm 0 W/m2
05:04 11.7 °C 8.5 °C 1016.5 hPa WNW 9 km/h 14.5 km/h 81% 0 mm 5 W/m2
05:08 11.7 °C 8.5 °C 1016.5 hPa WNW 10 km/h 17.7 km/h 81% 0 mm 5 W/m2
05:14 11.6 °C 8.6 °C 1016.5 hPa WNW 9.5 km/h 17.7 km/h 81.8% 0 mm 7 W/m2
05:19 11.7 °C 8.7 °C 1016.5 hPa WNW 8.5 km/h 16.1 km/h 82% 0 mm 9 W/m2
05:24 11.6 °C 8.6 °C 1016.8 hPa WNW 7.7 km/h 16.1 km/h 82% 0 mm 11 W/m2
05:29 11.6 °C 8.6 °C 1016.8 hPa WNW 6.1 km/h 16.1 km/h 82% 0 mm 12 W/m2
05:34 11.6 °C 8.6 °C 1016.8 hPa West 5 km/h 16.1 km/h 82% 0 mm 14 W/m2
05:39 11.5 °C 8.5 °C 1016.8 hPa WNW 3.9 km/h 9.7 km/h 82% 0 mm 18 W/m2
05:44 11.5 °C 8.5 °C 1016.8 hPa West 6.4 km/h 9.7 km/h 82% 0 mm 19 W/m2
05:49 11.5 °C 8.5 °C 1016.8 hPa WNW 7.9 km/h 11.3 km/h 82% 0 mm 21 W/m2
05:54 11.5 °C 8.5 °C 1016.8 hPa WNW 4.5 km/h 11.3 km/h 82% 0 mm 23 W/m2
05:59 11.6 °C 8.6 °C 1017.2 hPa WNW 6.8 km/h 12.9 km/h 82% 0 mm 26 W/m2
06:04 11.6 °C 8.6 °C 1017.2 hPa WNW 4 km/h 12.9 km/h 82% 0 mm 26 W/m2
06:09 11.6 °C 8.6 °C 1017.2 hPa WNW 6.1 km/h 11.3 km/h 82% 0 mm 28 W/m2
06:14 11.7 °C 8.7 °C 1017.2 hPa WNW 6.3 km/h 11.3 km/h 82% 0 mm 30 W/m2
06:19 11.7 °C 8.6 °C 1017.2 hPa West 6.4 km/h 11.3 km/h 81.6% 0 mm 30 W/m2
06:24 11.8 °C 8.6 °C 1017.2 hPa WNW 3.9 km/h 8 km/h 81.2% 0 mm 33 W/m2
06:29 11.8 °C 8.8 °C 1017.5 hPa WNW 2.7 km/h 8 km/h 82% 0 mm 37 W/m2
06:34 11.9 °C 8.9 °C 1017.5 hPa NW 6.4 km/h 9.7 km/h 82% 0 mm 42 W/m2
06:38 12.1 °C 8.9 °C 1017.5 hPa WNW 8.9 km/h 12.9 km/h 81.5% 0 mm 51 W/m2
06:44 12.2 °C 8.9 °C 1017.5 hPa WNW 7.9 km/h 16.1 km/h 81% 0 mm 63 W/m2
06:49 12.2 °C 8.9 °C 1017.8 hPa WNW 9.5 km/h 16.1 km/h 80.2% 0 mm 76 W/m2
06:54 12.3 °C 8.9 °C 1017.8 hPa WNW 13.8 km/h 19.3 km/h 80% 0 mm 91 W/m2
06:59 12.4 °C 8.9 °C 1017.8 hPa West 11.6 km/h 20.9 km/h 79% 0 mm 107 W/m2
07:04 12.6 °C 9.1 °C 1017.8 hPa WNW 8.7 km/h 17.7 km/h 79% 0 mm 127 W/m2
07:09 12.7 °C 9.2 °C 1017.8 hPa WNW 6.9 km/h 14.5 km/h 79% 0 mm 148 W/m2
07:14 12.7 °C 9.1 °C 1018.2 hPa WNW 10 km/h 22.5 km/h 78.6% 0 mm 169 W/m2
07:18 12.8 °C 9.1 °C 1018.2 hPa WNW 8 km/h 20.9 km/h 78% 0 mm 220 W/m2
07:24 12.7 °C 9 °C 1018.2 hPa WNW 8.9 km/h 20.9 km/h 78% 0 mm 195 W/m2
07:29 12.8 °C 9.1 °C 1018.2 hPa WNW 13.2 km/h 19.3 km/h 78% 0 mm 214 W/m2
07:34 12.9 °C 9.1 °C 1018.5 hPa West 12.9 km/h 19.3 km/h 77.6% 0 mm 269 W/m2
07:39 13 °C 9.1 °C 1018.5 hPa WNW 15.4 km/h 22.5 km/h 77% 0 mm 348 W/m2
07:44 13.2 °C 9.3 °C 1018.5 hPa WNW 11.3 km/h 22.5 km/h 76.5% 0 mm 399 W/m2
07:49 13.3 °C 9.2 °C 1018.5 hPa West 12.1 km/h 24.1 km/h 76% 0 mm 225 W/m2
07:54 13.2 °C 9 °C 1018.5 hPa WNW 12.6 km/h 22.5 km/h 75.6% 0 mm 188 W/m2
07:59 13 °C 8.9 °C 1018.8 hPa West 11.6 km/h 24.1 km/h 76% 0 mm 139 W/m2
08:04 13.1 °C 8.9 °C 1018.8 hPa West 10.6 km/h 20.9 km/h 76% 0 mm 360 W/m2
08:09 13.2 °C 9.2 °C 1018.8 hPa West 10.5 km/h 22.5 km/h 76% 0 mm 322 W/m2
08:14 13.3 °C 9.2 °C 1018.8 hPa WNW 12.1 km/h 22.5 km/h 75.6% 0 mm 223 W/m2
08:19 13.4 °C 9.2 °C 1018.8 hPa WNW 14.8 km/h 20.9 km/h 75.4% 0 mm 283 W/m2
08:24 13.5 °C 9.2 °C 1018.8 hPa WNW 11.6 km/h 22.5 km/h 75% 0 mm 480 W/m2
08:29 13.7 °C 9.3 °C 1018.8 hPa WNW 14.2 km/h 29 km/h 75% 0 mm 506 W/m2
08:34 13.7 °C 9.1 °C 1019.2 hPa WNW 8.9 km/h 29 km/h 74% 0 mm 508 W/m2
08:39 13.8 °C 9.2 °C 1019.2 hPa West 7.7 km/h 20.9 km/h 74% 0 mm 577 W/m2
08:44 13.9 °C 9.3 °C 1019.2 hPa West 11.9 km/h 20.9 km/h 74% 0 mm 594 W/m2
08:49 13.9 °C 9.2 °C 1019.2 hPa West 12.6 km/h 24.1 km/h 73.2% 0 mm 267 W/m2
08:59 13.6 °C 8.9 °C 1019.5 hPa WNW 10 km/h 25.7 km/h 73% 0 mm 181 W/m2
09:04 13.6 °C 8.9 °C 1019.5 hPa WNW 11.9 km/h 24.1 km/h 73% 0 mm 188 W/m2
09:09 13.7 °C 8.9 °C 1019.5 hPa WNW 10.8 km/h 20.9 km/h 73.3% 0 mm 179 W/m2
09:14 13.8 °C 9 °C 1019.5 hPa WNW 11.4 km/h 22.5 km/h 73% 0 mm 192 W/m2
09:19 13.8 °C 9.1 °C 1019.9 hPa WNW 6.1 km/h 19.3 km/h 73% 0 mm 223 W/m2
09:24 13.9 °C 8.9 °C 1019.9 hPa WNW 10.9 km/h 16.1 km/h 71.8% 0 mm 348 W/m2
09:29 14.1 °C 8.8 °C 1019.9 hPa NW 10 km/h 19.3 km/h 70.6% 0 mm 490 W/m2
09:34 14.3 °C 8.9 °C 1019.9 hPa WNW 9.5 km/h 17.7 km/h 70% 0 mm 232 W/m2
09:39 14.2 °C 8.8 °C 1019.9 hPa WNW 10.6 km/h 20.9 km/h 70.2% 0 mm 193 W/m2
09:44 14.1 °C 8.9 °C 1019.9 hPa WNW 9.8 km/h 24.1 km/h 70.8% 0 mm 151 W/m2
09:49 13.9 °C 8.8 °C 1019.9 hPa West 10 km/h 25.7 km/h 71.2% 0 mm 216 W/m2
09:54 13.9 °C 8.9 °C 1019.9 hPa WNW 9.3 km/h 24.1 km/h 72% 0 mm 264 W/m2
09:59 14.1 °C 9.1 °C 1019.9 hPa WNW 11.3 km/h 20.9 km/h 71.6% 0 mm 234 W/m2
10:04 14.1 °C 8.9 °C 1019.9 hPa WNW 12.4 km/h 24.1 km/h 71% 0 mm 214 W/m2
10:14 14.3 °C 9.2 °C 1020.2 hPa WNW 10.3 km/h 20.9 km/h 71.4% 0 mm 320 W/m2
10:19 14.2 °C 9.1 °C 1020.2 hPa WNW 15.1 km/h 27.4 km/h 71% 0 mm 199 W/m2
10:24 14.1 °C 8.9 °C 1020.2 hPa WNW 15.8 km/h 24.1 km/h 71% 0 mm 186 W/m2
10:29 14.1 °C 8.9 °C 1020.2 hPa WNW 7.7 km/h 24.1 km/h 71% 0 mm 257 W/m2
10:34 14.3 °C 9.1 °C 1020.2 hPa WNW 11.4 km/h 27.4 km/h 71% 0 mm 269 W/m2
10:39 14.3 °C 9.1 °C 1020.2 hPa WNW 9.7 km/h 17.7 km/h 71% 0 mm 255 W/m2
10:44 14.4 °C 9.3 °C 1020.2 hPa WNW 10.3 km/h 20.9 km/h 71.6% 0 mm 218 W/m2
10:49 14.4 °C 9.2 °C 1020.2 hPa WNW 10.8 km/h 27.4 km/h 71% 0 mm 278 W/m2
10:54 14.4 °C 9.2 °C 1020.5 hPa WNW 14.2 km/h 32.2 km/h 71% 0 mm 308 W/m2
10:59 14.4 °C 9.3 °C 1020.5 hPa WNW 10 km/h 24.1 km/h 71.8% 0 mm 244 W/m2
11:04 14.4 °C 9.3 °C 1020.5 hPa WNW 12.6 km/h 20.9 km/h 71.6% 0 mm 294 W/m2
11:09 14.4 °C 9.3 °C 1020.5 hPa WNW 9.7 km/h 19.3 km/h 71.4% 0 mm 392 W/m2
11:14 14.8 °C 9.6 °C 1020.5 hPa WNW 8.9 km/h 19.3 km/h 71% 0 mm 469 W/m2
11:19 15.2 °C 9.7 °C 1020.5 hPa West 13.5 km/h 20.9 km/h 70% 0 mm 519 W/m2
11:23 15.2 °C 9.6 °C 1020.5 hPa West 10.9 km/h 19.3 km/h 69.5% 0 mm 482 W/m2
11:29 15.2 °C 9.6 °C 1020.5 hPa NW 11.3 km/h 22.5 km/h 69.2% 0 mm 320 W/m2
11:34 15.2 °C 9.5 °C 1020.9 hPa NW 8.5 km/h 17.7 km/h 69% 0 mm 332 W/m2
11:39 15.2 °C 9.3 °C 1020.9 hPa West 13.5 km/h 24.1 km/h 68.2% 0 mm 406 W/m2
11:44 15.2 °C 9.3 °C 1020.9 hPa West 12.6 km/h 24.1 km/h 68% 0 mm 380 W/m2
11:49 15.3 °C 9.3 °C 1020.9 hPa WNW 13.8 km/h 25.7 km/h 67.8% 0 mm 373 W/m2
11:54 15.2 °C 9.3 °C 1020.9 hPa WNW 16.6 km/h 29 km/h 68% 0 mm 262 W/m2
11:59 15.1 °C 9.2 °C 1021.2 hPa WNW 10.6 km/h 20.9 km/h 68.2% 0 mm 178 W/m2
12:04 15 °C 9.4 °C 1021.2 hPa WNW 9.7 km/h 22.5 km/h 69% 0 mm 478 W/m2
12:09 15.1 °C 9.2 °C 1021.2 hPa WNW 9.8 km/h 27.4 km/h 68.4% 0 mm 543 W/m2
12:14 15.3 °C 9.3 °C 1021.2 hPa WNW 10.8 km/h 22.5 km/h 68% 0 mm 394 W/m2
12:19 15.5 °C 9.5 °C 1021.2 hPa WNW 14.8 km/h 22.5 km/h 67.6% 0 mm 475 W/m2
12:24 15.7 °C 9.7 °C 1021.2 hPa WNW 18 km/h 30.6 km/h 67% 0 mm 953 W/m2
12:29 15.8 °C 9.7 °C 1021.2 hPa WNW 19 km/h 29 km/h 66.8% 0 mm 984 W/m2
12:34 16.1 °C 10 °C 1021.2 hPa WNW 13.8 km/h 27.4 km/h 67.2% 0 mm 918 W/m2
12:39 16.2 °C 10.1 °C 1021.2 hPa WNW 16.3 km/h 25.7 km/h 67.2% 0 mm 907 W/m2
12:44 16.3 °C 10.4 °C 1021.2 hPa WNW 9.7 km/h 22.5 km/h 68% 0 mm 907 W/m2
12:49 16.3 °C 10.7 °C 1021.2 hPa WNW 9.3 km/h 29 km/h 69% 0 mm 278 W/m2
12:54 16.2 °C 10.6 °C 1021.6 hPa WNW 7.2 km/h 17.7 km/h 69.2% 0 mm 1090 W/m2
12:59 16.4 °C 10.8 °C 1021.6 hPa WNW 11.9 km/h 22.5 km/h 69.4% 0 mm 1090 W/m2
13:04 16.7 °C 10.9 °C 1021.6 hPa WNW 13.5 km/h 30.6 km/h 68.4% 0 mm 1028 W/m2
13:08 16.8 °C 10.9 °C 1021.6 hPa NW 14.2 km/h 25.7 km/h 67.8% 0 mm 1028 W/m2
13:14 16.8 °C 10.8 °C 1021.6 hPa West 12.9 km/h 25.7 km/h 67.8% 0 mm 1071 W/m2
13:19 16.8 °C 10.9 °C 1021.6 hPa NW 13.5 km/h 25.7 km/h 68.2% 0 mm 1071 W/m2
13:24 17 °C 11 °C 1021.6 hPa NW 16.6 km/h 30.6 km/h 67.8% 0 mm 986 W/m2
13:29 17.2 °C 11.1 °C 1021.6 hPa NW 15.1 km/h 27.4 km/h 67.4% 0 mm 1081 W/m2
13:34 17.2 °C 11 °C 1021.6 hPa West 12.2 km/h 29 km/h 67% 0 mm 1132 W/m2
13:39 17.3 °C 11.3 °C 1021.6 hPa WNW 13.2 km/h 20.9 km/h 67.6% 0 mm 429 W/m2
13:43 17.4 °C 11.3 °C 1021.6 hPa WNW 10.3 km/h 25.7 km/h 67.8% 0 mm 350 W/m2
13:49 17.1 °C 11.1 °C 1021.6 hPa WNW 12.2 km/h 20.9 km/h 67.8% 0 mm 258 W/m2
13:54 16.8 °C 11 °C 1021.9 hPa West 10.3 km/h 20.9 km/h 68.2% 0 mm 258 W/m2
13:59 16.8 °C 11.1 °C 1021.9 hPa West 11.9 km/h 19.3 km/h 69% 0 mm 279 W/m2
14:04 16.7 °C 11 °C 1021.9 hPa WNW 9 km/h 22.5 km/h 68.8% 0 mm 290 W/m2
14:09 16.7 °C 10.9 °C 1021.9 hPa WNW 13.5 km/h 27.4 km/h 68.6% 0 mm 288 W/m2
14:14 16.7 °C 11.1 °C 1021.9 hPa WNW 7.7 km/h 27.4 km/h 69.4% 0 mm 396 W/m2
14:19 16.8 °C 11.2 °C 1021.9 hPa West 13.7 km/h 27.4 km/h 69.3% 0 mm 364 W/m2
14:24 16.7 °C 11.1 °C 1021.9 hPa West 12.2 km/h 27.4 km/h 69% 0 mm 357 W/m2
14:29 16.8 °C 11.2 °C 1021.9 hPa West 10.9 km/h 27.4 km/h 69% 0 mm 346 W/m2
14:34 17 °C 11.3 °C 1021.9 hPa WNW 9.3 km/h 27.4 km/h 69% 0 mm 311 W/m2
14:39 17.1 °C 11.2 °C 1021.9 hPa West 12.6 km/h 20.9 km/h 68.4% 0 mm 350 W/m2
14:44 17.1 °C 11.4 °C 1021.9 hPa West 11.9 km/h 22.5 km/h 69.2% 0 mm 355 W/m2
14:49 17 °C 11.4 °C 1021.9 hPa NW 11.3 km/h 24.1 km/h 69.8% 0 mm 197 W/m2
14:54 16.9 °C 11.3 °C 1021.9 hPa WNW 12.2 km/h 25.7 km/h 69.8% 0 mm 250 W/m2
14:59 16.8 °C 11.2 °C 1021.9 hPa WNW 11.9 km/h 25.7 km/h 69.4% 0 mm 243 W/m2
15:04 16.8 °C 11.3 °C 1021.9 hPa WNW 12.9 km/h 24.1 km/h 69.8% 0 mm 251 W/m2
15:09 17 °C 11.5 °C 1021.9 hPa West 11.9 km/h 24.1 km/h 70% 0 mm 251 W/m2
15:14 17.1 °C 11.7 °C 1022.2 hPa West 11.3 km/h 22.5 km/h 70.2% 0 mm 410 W/m2
15:19 17.3 °C 11.9 °C 1021.9 hPa WNW 11.9 km/h 24.1 km/h 71% 0 mm 441 W/m2
15:24 17.4 °C 12.1 °C 1021.9 hPa WNW 13.8 km/h 27.4 km/h 71% 0 mm 441 W/m2
15:29 17.2 °C 12 °C 1021.9 hPa WNW 14.2 km/h 29 km/h 71.4% 0 mm 243 W/m2
15:34 17.2 °C 12.1 °C 1021.9 hPa West 13.2 km/h 22.5 km/h 72% 0 mm 241 W/m2
15:39 17.3 °C 12.1 °C 1021.9 hPa WNW 11.3 km/h 22.5 km/h 71.4% 0 mm 329 W/m2
15:44 17.3 °C 11.8 °C 1021.9 hPa WNW 11.9 km/h 27.4 km/h 70.2% 0 mm 350 W/m2
15:49 17.4 °C 12 °C 1021.9 hPa West 14.8 km/h 27.4 km/h 70.4% 0 mm 350 W/m2
15:54 17.7 °C 12.1 °C 1021.9 hPa WNW 10.5 km/h 25.7 km/h 69.6% 0 mm 309 W/m2
15:59 17.5 °C 11.9 °C 1021.9 hPa WNW 8.5 km/h 25.7 km/h 69.6% 0 mm 216 W/m2
16:04 17.7 °C 12 °C 1021.9 hPa WNW 9.3 km/h 20.9 km/h 69.6% 0 mm 264 W/m2
16:09 17.5 °C 11.5 °C 1022.2 hPa WNW 11.4 km/h 20.9 km/h 68% 0 mm 192 W/m2
16:14 17.4 °C 11.6 °C 1022.2 hPa WNW 9.2 km/h 19.3 km/h 68.5% 0 mm 190 W/m2
16:19 17.6 °C 12.1 °C 1022.2 hPa WNW 14.2 km/h 24.1 km/h 70% 0 mm 849 W/m2
16:24 17.8 °C 12.1 °C 1021.9 hPa WNW 14.2 km/h 25.7 km/h 69.4% 0 mm 849 W/m2
16:29 17.8 °C 11.9 °C 1022.2 hPa WNW 10.9 km/h 25.7 km/h 68.6% 0 mm 253 W/m2
16:34 17.8 °C 11.8 °C 1022.2 hPa WNW 14.8 km/h 24.1 km/h 68% 0 mm 840 W/m2
16:39 18 °C 11.9 °C 1022.2 hPa WNW 13.8 km/h 24.1 km/h 67.6% 0 mm 840 W/m2
16:44 17.8 °C 11.7 °C 1022.2 hPa NW 14.3 km/h 20.9 km/h 67.8% 0 mm 225 W/m2
16:49 17.9 °C 11.9 °C 1022.2 hPa WNW 13.2 km/h 22.5 km/h 68% 0 mm 793 W/m2
16:54 18.3 °C 12.2 °C 1022.2 hPa West 13.5 km/h 25.7 km/h 67.4% 0 mm 833 W/m2
16:59 18.3 °C 12.1 °C 1022.2 hPa WNW 16.3 km/h 24.1 km/h 67% 0 mm 264 W/m2
17:04 18.3 °C 11.8 °C 1022.2 hPa WNW 14.2 km/h 27.4 km/h 65.8% 0 mm 733 W/m2
17:09 18.8 °C 11.2 °C 1022.2 hPa NW 10.8 km/h 22.5 km/h 61.2% 0 mm 661 W/m2
17:14 19.1 °C 10.7 °C 1022.2 hPa NW 8.2 km/h 20.9 km/h 58.6% 0 mm 744 W/m2
17:19 19.2 °C 10.6 °C 1022.2 hPa NW 11.7 km/h 20.9 km/h 57.2% 0 mm 751 W/m2
17:24 18.8 °C 10.6 °C 1022.2 hPa NW 10.8 km/h 20.9 km/h 58.6% 0 mm 239 W/m2
17:29 18.8 °C 10.6 °C 1022.2 hPa WNW 9.3 km/h 17.7 km/h 59% 0 mm 698 W/m2
17:34 18.9 °C 10.4 °C 1022.2 hPa NW 11.9 km/h 24.1 km/h 57.8% 0 mm 239 W/m2
17:39 18.8 °C 10.6 °C 1022.2 hPa NW 13.8 km/h 19.3 km/h 59% 0 mm 643 W/m2
17:44 18.8 °C 10.7 °C 1022.2 hPa NW 8.7 km/h 22.5 km/h 59% 0 mm 251 W/m2
17:49 18.6 °C 10.3 °C 1022.2 hPa WNW 10.3 km/h 22.5 km/h 58.6% 0 mm 564 W/m2
17:54 18.8 °C 10.4 °C 1022.2 hPa NW 10 km/h 20.9 km/h 58.2% 0 mm 594 W/m2
17:59 18.9 °C 10.3 °C 1022.2 hPa WNW 12.6 km/h 24.1 km/h 57% 0 mm 594 W/m2
18:04 18.8 °C 10.3 °C 1022.2 hPa WNW 7.7 km/h 16.1 km/h 57.4% 0 mm 172 W/m2
18:08 18.7 °C 10.1 °C 1022.2 hPa WNW 8 km/h 16.1 km/h 57.5% 0 mm 218 W/m2
18:14 18.6 °C 10.3 °C 1022.2 hPa WNW 10.3 km/h 20.9 km/h 58.4% 0 mm 214 W/m2
18:19 18.7 °C 10.2 °C 1022.2 hPa NW 10.9 km/h 24.1 km/h 57.8% 0 mm 459 W/m2
18:24 18.5 °C 9.8 °C 1022.2 hPa NW 8.9 km/h 25.7 km/h 57.2% 0 mm 221 W/m2
18:29 18.4 °C 9.9 °C 1022.6 hPa NW 8.7 km/h 19.3 km/h 57.8% 0 mm 255 W/m2
18:34 18.7 °C 9.8 °C 1022.6 hPa NW 12.9 km/h 20.9 km/h 56.4% 0 mm 503 W/m2
18:39 18.4 °C 9.4 °C 1022.2 hPa NW 9.5 km/h 20.9 km/h 55.8% 0 mm 441 W/m2
18:44 18.5 °C 9.6 °C 1022.6 hPa WNW 10 km/h 17.7 km/h 56.2% 0 mm 462 W/m2
18:49 18.5 °C 9.6 °C 1022.2 hPa NW 9.2 km/h 17.7 km/h 56% 0 mm 313 W/m2
18:54 18.6 °C 9.4 °C 1022.6 hPa WNW 14.5 km/h 22.5 km/h 55.2% 0 mm 392 W/m2
18:59 18.7 °C 9.3 °C 1022.6 hPa NW 9.3 km/h 19.3 km/h 54.4% 0 mm 376 W/m2
19:04 18.8 °C 9.4 °C 1022.6 hPa WNW 10.6 km/h 20.9 km/h 54.2% 0 mm 308 W/m2
19:09 18.7 °C 9.2 °C 1022.6 hPa NW 9.5 km/h 20.9 km/h 54% 0 mm 299 W/m2
19:14 18.3 °C 8.9 °C 1022.6 hPa NW 11.1 km/h 22.5 km/h 54.6% 0 mm 292 W/m2
19:19 18.3 °C 9.2 °C 1022.6 hPa NW 7.9 km/h 16.1 km/h 55% 0 mm 299 W/m2
Bath Spa Weather
Compliments of Weather Underground - 2 mb